createdAt,value
2018-12-15T00:00:28.784Z,8.35
2018-12-15T00:01:32.275Z,9.20
2018-12-15T00:02:35.476Z,8.07
2018-12-15T00:03:38.787Z,7.83
2018-12-15T00:04:42.020Z,8.17
2018-12-15T00:05:45.260Z,9.10
2018-12-15T00:06:48.766Z,8.38
2018-12-15T00:07:52.034Z,8.70
2018-12-15T00:08:55.321Z,8.15
2018-12-15T00:09:58.552Z,8.25
2018-12-15T00:11:01.906Z,8.03
2018-12-15T00:12:05.128Z,8.88
2018-12-15T00:13:08.396Z,8.45
2018-12-15T00:14:11.645Z,8.73
2018-12-15T00:15:14.891Z,9.33
2018-12-15T00:16:18.198Z,8.50
2018-12-15T00:17:21.513Z,8.15
2018-12-15T00:18:25.559Z,7.60
2018-12-15T00:19:28.810Z,8.10
2018-12-15T00:20:32.054Z,8.23
2018-12-15T00:21:35.392Z,8.63
2018-12-15T00:22:38.681Z,8.23
2018-12-15T00:23:42.528Z,8.00
2018-12-15T00:24:45.780Z,8.10
2018-12-15T00:25:49.047Z,7.87
2018-12-15T00:26:52.391Z,7.72
2018-12-15T00:27:55.769Z,8.40
2018-12-15T00:28:59.026Z,6.90
2018-12-15T00:30:02.248Z,7.47
2018-12-15T00:31:05.523Z,7.72
2018-12-15T00:32:08.829Z,7.50
2018-12-15T00:33:12.074Z,8.55
2018-12-15T00:34:15.347Z,7.90
2018-12-15T00:35:18.681Z,8.07
2018-12-15T00:36:21.950Z,8.17
2018-12-15T00:37:25.293Z,8.80
2018-12-15T00:38:28.565Z,8.00
2018-12-15T00:39:31.906Z,8.25
2018-12-15T00:40:35.257Z,8.50
2018-12-15T00:41:38.489Z,8.05
2018-12-15T00:42:41.720Z,9.25
2018-12-15T00:43:44.972Z,7.90
2018-12-15T00:44:48.342Z,8.28
2018-12-15T00:45:52.055Z,7.62
2018-12-15T00:46:55.307Z,8.70
2018-12-15T00:47:58.667Z,8.15
2018-12-15T00:49:01.958Z,8.10
2018-12-15T00:50:05.310Z,8.83
2018-12-15T00:51:08.622Z,8.75
2018-12-15T00:52:11.898Z,8.25
2018-12-15T00:53:15.251Z,8.30
2018-12-15T00:54:18.567Z,8.67
2018-12-15T00:55:21.910Z,8.43
2018-12-15T00:56:25.195Z,8.83
2018-12-15T00:57:28.438Z,8.60
2018-12-15T00:58:31.714Z,8.43
2018-12-15T00:59:34.957Z,8.23
2018-12-15T01:00:38.189Z,8.30
2018-12-15T01:01:41.444Z,8.40
2018-12-15T01:02:44.680Z,8.73
2018-12-15T01:03:48.030Z,8.47
2018-12-15T01:04:53.172Z,8.38
2018-12-15T01:05:56.437Z,8.43
2018-12-15T01:06:59.724Z,8.13
2018-12-15T01:08:03.042Z,8.33
2018-12-15T01:09:06.395Z,9.00
2018-12-15T01:10:09.694Z,8.40
2018-12-15T01:11:12.957Z,8.13
2018-12-15T01:12:16.324Z,8.08
2018-12-15T01:13:19.674Z,8.73
2018-12-15T01:14:23.016Z,8.80
2018-12-15T01:15:31.846Z,8.58
2018-12-15T01:16:35.183Z,8.40
2018-12-15T01:17:38.463Z,8.53
2018-12-15T01:18:41.683Z,8.30
2018-12-15T01:19:45.216Z,8.53
2018-12-15T01:20:48.452Z,8.95
2018-12-15T01:21:51.710Z,8.85
2018-12-15T01:22:54.948Z,8.18
2018-12-15T01:23:58.418Z,8.63
2018-12-15T01:25:01.657Z,8.80
2018-12-15T01:26:04.915Z,8.25
2018-12-15T01:27:08.248Z,8.50
2018-12-15T01:28:11.488Z,8.27
2018-12-15T01:29:14.835Z,8.80
2018-12-15T01:30:18.116Z,8.37
2018-12-15T01:31:21.437Z,8.35
2018-12-15T01:32:24.719Z,8.87
2018-12-15T01:33:27.904Z,8.35
2018-12-15T01:34:31.204Z,8.97
2018-12-15T01:35:34.431Z,8.73
2018-12-15T01:36:37.664Z,9.38
2018-12-15T01:37:40.914Z,8.77
2018-12-15T01:38:44.234Z,9.20
2018-12-15T01:39:47.502Z,8.33
2018-12-15T01:40:50.775Z,9.35
2018-12-15T01:41:54.009Z,8.87
2018-12-15T01:42:57.264Z,8.78
2018-12-15T01:44:00.582Z,8.67
2018-12-15T01:45:04.640Z,8.20
2018-12-15T01:46:07.944Z,8.25
2018-12-15T01:47:11.178Z,8.83
2018-12-15T01:48:14.409Z,8.65
2018-12-15T01:49:17.687Z,8.47
2018-12-15T01:50:20.927Z,9.07
2018-12-15T01:51:24.960Z,7.97
2018-12-15T01:52:28.162Z,8.60
2018-12-15T01:53:31.471Z,8.60
2018-12-15T01:54:34.805Z,9.53
2018-12-15T01:55:38.024Z,8.90
2018-12-15T01:56:41.265Z,9.65
2018-12-15T01:57:44.512Z,9.08
2018-12-15T01:58:47.796Z,9.63
2018-12-15T01:59:51.043Z,9.15
2018-12-15T02:00:54.277Z,9.03
2018-12-15T02:01:57.520Z,8.93
2018-12-15T02:03:00.748Z,8.53
2018-12-15T02:04:04.011Z,9.47
2018-12-15T02:05:07.362Z,8.80
2018-12-15T02:06:16.629Z,8.57
2018-12-15T02:07:26.346Z,8.97
2018-12-15T02:08:29.691Z,8.73
2018-12-15T02:09:33.028Z,8.78
2018-12-15T02:10:36.271Z,9.30
2018-12-15T02:11:39.606Z,9.27
2018-12-15T02:12:42.944Z,8.93
2018-12-15T02:13:46.239Z,9.17
2018-12-15T02:14:49.478Z,8.80
2018-12-15T02:15:52.836Z,8.73
2018-12-15T02:16:56.081Z,8.43
2018-12-15T02:17:59.332Z,8.90
2018-12-15T02:19:02.577Z,9.18
2018-12-15T02:20:06.117Z,9.15
2018-12-15T02:21:09.395Z,8.90
2018-12-15T02:22:12.714Z,9.58
2018-12-15T02:23:16.024Z,9.13
2018-12-15T02:24:19.265Z,9.18
2018-12-15T02:25:22.521Z,8.45
2018-12-15T02:26:25.803Z,8.90
2018-12-15T02:27:29.023Z,8.90
2018-12-15T02:28:32.285Z,8.85
2018-12-15T02:29:35.571Z,8.80
2018-12-15T02:30:38.798Z,9.07
2018-12-15T02:31:43.343Z,9.73
2018-12-15T02:32:46.610Z,8.70
2018-12-15T02:33:49.828Z,8.53
2018-12-15T02:34:53.076Z,9.13
2018-12-15T02:35:56.383Z,9.03
2018-12-15T02:36:59.598Z,8.93
2018-12-15T02:38:02.951Z,8.97
2018-12-15T02:39:06.607Z,8.93
2018-12-15T02:40:09.848Z,9.15
2018-12-15T02:41:13.099Z,9.47
2018-12-15T02:42:16.540Z,9.40
2018-12-15T02:43:19.823Z,9.63
2018-12-15T02:44:23.073Z,10.37
2018-12-15T02:45:26.572Z,9.40
2018-12-15T02:46:29.826Z,9.10
2018-12-15T02:47:33.091Z,9.50
2018-12-15T02:48:37.317Z,9.55
2018-12-15T02:49:40.555Z,8.90
2018-12-15T02:50:43.780Z,9.90
2018-12-15T02:51:47.051Z,9.73
2018-12-15T02:52:50.343Z,8.63
2018-12-15T02:53:53.596Z,9.83
2018-12-15T02:54:56.872Z,9.00
2018-12-15T02:56:00.209Z,9.30
2018-12-15T02:57:03.689Z,9.80
2018-12-15T02:58:06.951Z,9.50
2018-12-15T02:59:10.207Z,10.13
2018-12-15T03:00:13.525Z,9.83
2018-12-15T03:01:16.840Z,10.05
2018-12-15T03:02:20.105Z,8.65
2018-12-15T03:03:23.330Z,8.73
2018-12-15T03:04:26.649Z,9.00
2018-12-15T03:05:29.897Z,9.33
2018-12-15T03:06:33.142Z,8.77
2018-12-15T03:07:36.399Z,9.13
2018-12-15T03:08:39.701Z,8.83
2018-12-15T03:09:43.034Z,9.13
2018-12-15T03:10:46.384Z,9.63
2018-12-15T03:11:49.625Z,9.40
2018-12-15T03:12:52.946Z,9.77
2018-12-15T03:13:56.197Z,9.20
2018-12-15T03:14:59.433Z,9.50
2018-12-15T03:16:02.792Z,10.20
2018-12-15T03:17:06.350Z,9.43
2018-12-15T03:18:09.648Z,10.23
2018-12-15T03:19:12.925Z,9.90
2018-12-15T03:20:16.234Z,9.57
2018-12-15T03:21:19.463Z,9.07
2018-12-15T03:22:22.704Z,9.33
2018-12-15T03:23:25.956Z,9.63
2018-12-15T03:24:29.292Z,9.53
2018-12-15T03:25:32.572Z,9.33
2018-12-15T03:26:35.812Z,8.93
2018-12-15T03:27:39.106Z,9.97
2018-12-15T03:28:42.526Z,9.13
2018-12-15T03:29:45.776Z,10.05
2018-12-15T03:30:49.131Z,9.40
2018-12-15T03:31:52.343Z,9.15
2018-12-15T03:32:55.592Z,9.33
2018-12-15T03:33:58.837Z,9.60
2018-12-15T03:35:02.156Z,8.70
2018-12-15T03:36:05.389Z,9.75
2018-12-15T03:37:08.629Z,9.45
2018-12-15T03:38:11.880Z,9.70
2018-12-15T03:39:15.139Z,9.85
2018-12-15T03:40:18.402Z,9.73
2018-12-15T03:41:21.763Z,9.70
2018-12-15T03:42:24.999Z,10.43
2018-12-15T03:43:28.244Z,9.83
2018-12-15T03:44:31.550Z,9.93
2018-12-15T03:45:34.834Z,8.90
2018-12-15T03:46:38.116Z,10.78
2018-12-15T03:47:41.393Z,10.40
2018-12-15T03:48:44.616Z,10.03
2018-12-15T03:49:47.881Z,9.83
2018-12-15T03:50:51.119Z,10.40
2018-12-15T03:51:54.367Z,9.55
2018-12-15T03:52:57.621Z,9.95
2018-12-15T03:54:00.920Z,9.30
2018-12-15T03:55:04.203Z,9.53
2018-12-15T03:56:07.454Z,9.63
2018-12-15T03:57:10.694Z,9.63
2018-12-15T03:58:13.939Z,9.87
2018-12-15T03:59:17.452Z,10.23
2018-12-15T04:00:20.717Z,9.17
2018-12-15T04:01:23.973Z,9.65
2018-12-15T04:02:27.282Z,9.47
2018-12-15T04:03:30.596Z,10.25
2018-12-15T04:04:34.047Z,9.68
2018-12-15T04:05:37.287Z,9.68
2018-12-15T04:06:40.539Z,9.80
2018-12-15T04:07:43.833Z,9.35
2018-12-15T04:08:47.086Z,9.95
2018-12-15T04:09:50.337Z,9.03
2018-12-15T04:10:53.596Z,9.10
2018-12-15T04:11:56.869Z,9.00
2018-12-15T04:13:00.730Z,9.30
2018-12-15T04:14:04.055Z,9.33
2018-12-15T04:15:07.374Z,8.47
2018-12-15T04:16:11.365Z,9.43
2018-12-15T04:17:14.633Z,8.70
2018-12-15T04:18:18.145Z,9.85
2018-12-15T04:19:21.452Z,9.80
2018-12-15T04:20:25.363Z,9.37
2018-12-15T04:21:28.636Z,9.63
2018-12-15T04:22:31.885Z,9.70
2018-12-15T04:23:35.310Z,9.17
2018-12-15T04:24:38.557Z,10.25
2018-12-15T04:25:41.896Z,9.30
2018-12-15T04:26:45.178Z,10.30
2018-12-15T04:27:48.421Z,10.10
2018-12-15T04:28:51.665Z,10.07
2018-12-15T04:29:54.910Z,9.97
2018-12-15T04:30:58.161Z,9.20
2018-12-15T04:32:01.408Z,9.37
2018-12-15T04:33:05.489Z,10.10
2018-12-15T04:34:08.733Z,9.80
2018-12-15T04:35:12.151Z,10.10
2018-12-15T04:36:16.453Z,9.53
2018-12-15T04:37:19.710Z,8.90
2018-12-15T04:38:22.982Z,8.85
2018-12-15T04:39:26.231Z,9.20
2018-12-15T04:40:29.664Z,9.40
2018-12-15T04:41:32.905Z,9.05
2018-12-15T04:42:36.141Z,8.80
2018-12-15T04:43:39.464Z,8.60
2018-12-15T04:44:43.112Z,8.98
2018-12-15T04:45:46.382Z,9.05
2018-12-15T04:46:49.684Z,9.03
2018-12-15T04:47:52.936Z,8.98
2018-12-15T04:48:56.188Z,9.30
2018-12-15T04:49:59.417Z,9.78
2018-12-15T04:51:02.675Z,9.37
2018-12-15T04:52:06.241Z,9.43
2018-12-15T04:53:09.786Z,8.70
2018-12-15T04:54:13.048Z,9.50
2018-12-15T04:55:16.303Z,8.53
2018-12-15T04:56:19.580Z,9.23
2018-12-15T04:57:22.815Z,8.93
2018-12-15T04:58:26.044Z,8.40
2018-12-15T04:59:29.301Z,10.00
2018-12-15T05:00:32.567Z,8.37
2018-12-15T05:01:35.801Z,8.53
2018-12-15T05:02:43.859Z,10.27
2018-12-15T05:03:44.252Z,9.20
2018-12-15T05:04:47.512Z,8.87
2018-12-15T05:05:50.768Z,9.60
2018-12-15T05:06:54.006Z,9.10
2018-12-15T05:07:57.371Z,8.97
2018-12-15T05:09:00.625Z,9.07
2018-12-15T05:10:05.201Z,8.70
2018-12-15T05:11:08.468Z,9.30
2018-12-15T05:12:11.798Z,9.48
2018-12-15T05:13:15.038Z,9.63
2018-12-15T05:14:18.291Z,9.28
2018-12-15T05:15:21.539Z,9.15
2018-12-15T05:16:24.784Z,9.75
2018-12-15T05:17:28.082Z,9.35
2018-12-15T05:18:31.333Z,9.05
2018-12-15T05:19:34.592Z,9.60
2018-12-15T05:20:37.895Z,9.20
2018-12-15T05:21:41.242Z,10.30
2018-12-15T05:22:44.484Z,9.58
2018-12-15T05:23:47.796Z,9.28
2018-12-15T05:24:51.314Z,9.87
2018-12-15T05:25:54.588Z,9.80
2018-12-15T05:26:57.882Z,9.50
2018-12-15T05:28:01.164Z,10.17
2018-12-15T05:29:04.407Z,9.13
2018-12-15T05:30:07.801Z,9.18
2018-12-15T05:31:11.136Z,10.17
2018-12-15T05:32:14.451Z,9.33
2018-12-15T05:33:17.704Z,9.80
2018-12-15T05:34:20.956Z,9.50
2018-12-15T05:35:24.204Z,9.98
2018-12-15T05:36:27.453Z,9.60
2018-12-15T05:37:30.676Z,8.90
2018-12-15T05:38:33.955Z,9.80
2018-12-15T05:39:37.182Z,8.90
2018-12-15T05:40:40.405Z,9.73
2018-12-15T05:41:43.681Z,9.48
2018-12-15T05:42:46.922Z,9.20
2018-12-15T05:43:50.272Z,8.98
2018-12-15T05:44:53.525Z,9.37
2018-12-15T05:45:56.778Z,8.93
2018-12-15T05:47:00.037Z,9.50
2018-12-15T05:48:03.322Z,8.85
2018-12-15T05:49:06.585Z,9.05
2018-12-15T05:50:09.831Z,9.10
2018-12-15T05:51:13.096Z,9.33
2018-12-15T05:52:16.353Z,9.48
2018-12-15T05:53:19.590Z,9.03
2018-12-15T05:54:22.987Z,9.08
2018-12-15T05:55:26.232Z,9.43
2018-12-15T05:56:29.507Z,8.78
2018-12-15T05:57:32.756Z,8.35
2018-12-15T05:58:35.991Z,9.05
2018-12-15T05:59:39.235Z,8.40
2018-12-15T06:00:42.508Z,8.90
2018-12-15T06:01:45.749Z,9.18
2018-12-15T06:02:49.170Z,9.30
2018-12-15T06:03:52.428Z,9.03
2018-12-15T06:04:56.344Z,8.20
2018-12-15T06:05:59.619Z,8.70
2018-12-15T06:07:02.878Z,9.67
2018-12-15T06:08:06.132Z,8.07
2018-12-15T06:09:09.463Z,8.67
2018-12-15T06:10:12.773Z,8.67
2018-12-15T06:11:16.107Z,8.73
2018-12-15T06:12:19.394Z,8.47
2018-12-15T06:13:22.628Z,8.38
2018-12-15T06:14:25.896Z,8.37
2018-12-15T06:15:29.167Z,7.90
2018-12-15T06:16:32.398Z,8.10
2018-12-15T06:17:35.702Z,8.43
2018-12-15T06:18:38.949Z,8.90
2018-12-15T06:19:42.189Z,8.08
2018-12-15T06:20:45.424Z,7.67
2018-12-15T06:21:48.877Z,8.10
2018-12-15T06:22:52.120Z,8.50
2018-12-15T06:23:55.362Z,8.48
2018-12-15T06:24:58.589Z,7.78
2018-12-15T06:26:01.833Z,8.60
2018-12-15T06:27:05.085Z,8.15
2018-12-15T06:28:08.492Z,7.84
2018-12-15T06:29:11.714Z,8.65
2018-12-15T06:30:14.986Z,7.78
2018-12-15T06:31:18.213Z,7.83
2018-12-15T06:32:21.466Z,8.35
2018-12-15T06:33:24.790Z,7.28
2018-12-15T06:34:28.034Z,8.03
2018-12-15T06:35:31.270Z,7.25
2018-12-15T06:36:34.533Z,7.83
2018-12-15T06:37:37.768Z,7.25
2018-12-15T06:38:41.036Z,6.97
2018-12-15T06:39:44.269Z,7.13
2018-12-15T06:40:47.514Z,7.80
2018-12-15T06:41:50.778Z,7.60
2018-12-15T06:42:54.820Z,7.55
2018-12-15T06:43:58.196Z,6.90
2018-12-15T06:45:01.474Z,7.05
2018-12-15T06:46:04.946Z,7.05
2018-12-15T06:47:08.183Z,7.33
2018-12-15T06:48:11.412Z,6.70
2018-12-15T06:49:14.650Z,6.55
2018-12-15T06:50:17.964Z,6.60
2018-12-15T06:51:21.240Z,6.15
2018-12-15T06:52:24.505Z,6.28
2018-12-15T06:53:27.726Z,6.47
2018-12-15T06:54:30.976Z,6.63
2018-12-15T06:55:34.241Z,6.13
2018-12-15T06:56:37.457Z,6.33
2018-12-15T06:57:40.716Z,6.30
2018-12-15T06:58:43.978Z,6.10
2018-12-15T06:59:47.226Z,6.35
2018-12-15T07:00:50.459Z,6.40
2018-12-15T07:01:53.992Z,6.90
2018-12-15T07:02:57.341Z,6.08
2018-12-15T07:04:00.574Z,6.00
2018-12-15T07:05:04.368Z,6.35
2018-12-15T07:06:08.331Z,5.65
2018-12-15T07:07:11.625Z,5.95
2018-12-15T07:08:14.903Z,6.12
2018-12-15T07:09:18.116Z,5.65
2018-12-15T07:10:21.359Z,5.35
2018-12-15T07:11:24.608Z,5.95
2018-12-15T07:12:27.872Z,6.30
2018-12-15T07:13:31.111Z,6.03
2018-12-15T07:14:34.349Z,5.73
2018-12-15T07:15:37.840Z,6.07
2018-12-15T07:16:41.210Z,5.95
2018-12-15T07:17:45.129Z,6.40
2018-12-15T07:18:49.988Z,6.17
2018-12-15T07:19:53.481Z,5.43
2018-12-15T07:20:56.745Z,6.30
2018-12-15T07:21:59.976Z,6.37
2018-12-15T07:23:03.239Z,6.00
2018-12-15T07:24:06.518Z,6.70
2018-12-15T07:25:09.764Z,6.47
2018-12-15T07:26:13.014Z,6.50
2018-12-15T07:27:16.866Z,5.77
2018-12-15T07:28:20.118Z,6.47
2018-12-15T07:29:23.384Z,6.05
2018-12-15T07:30:27.011Z,6.00
2018-12-15T07:31:30.325Z,6.43
2018-12-15T07:32:34.325Z,6.33
2018-12-15T07:33:37.574Z,6.25
2018-12-15T07:34:40.841Z,5.80
2018-12-15T07:35:44.056Z,6.00
2018-12-15T07:36:47.292Z,5.78
2018-12-15T07:37:50.628Z,6.12
2018-12-15T07:38:53.912Z,6.28
2018-12-15T07:39:57.152Z,6.20
2018-12-15T07:41:00.438Z,6.33
2018-12-15T07:42:03.738Z,6.75
2018-12-15T07:43:06.979Z,5.80
2018-12-15T07:44:10.213Z,6.37
2018-12-15T07:45:13.435Z,6.77
2018-12-15T07:46:16.799Z,6.40
2018-12-15T07:47:20.165Z,6.73
2018-12-15T07:48:23.735Z,6.17
2018-12-15T07:49:26.962Z,6.85
2018-12-15T07:50:30.196Z,5.97
2018-12-15T07:51:33.530Z,6.30
2018-12-15T07:52:37.512Z,5.97
2018-12-15T07:53:40.777Z,6.33
2018-12-15T07:54:44.007Z,5.90
2018-12-15T07:55:47.251Z,5.35
2018-12-15T07:56:50.511Z,6.50
2018-12-15T07:57:53.790Z,6.60
2018-12-15T07:58:57.013Z,5.90
2018-12-15T08:00:00.243Z,6.57
2018-12-15T08:01:03.596Z,5.78
2018-12-15T08:02:06.844Z,6.30
2018-12-15T08:03:10.168Z,6.23
2018-12-15T08:04:13.914Z,6.70
2018-12-15T08:05:17.256Z,6.60
2018-12-15T08:06:20.497Z,6.50
2018-12-15T08:07:23.878Z,7.10
2018-12-15T08:08:27.860Z,6.87
2018-12-15T08:09:31.111Z,6.62
2018-12-15T08:10:36.877Z,6.20
2018-12-15T08:11:45.697Z,6.42
2018-12-15T08:12:50.978Z,6.75
2018-12-15T08:14:04.036Z,5.97
2018-12-15T08:15:07.487Z,6.17
2018-12-15T08:16:10.722Z,5.97
2018-12-15T08:17:13.952Z,6.30
2018-12-15T08:18:17.195Z,6.63
2018-12-15T08:19:20.455Z,6.10
2018-12-15T08:20:23.789Z,6.28
2018-12-15T08:21:27.020Z,6.07
2018-12-15T08:22:30.257Z,6.30
2018-12-15T08:23:33.496Z,6.43
2018-12-15T08:24:36.720Z,6.40
2018-12-15T08:25:40.014Z,6.43
2018-12-15T08:26:43.251Z,6.67
2018-12-15T08:27:47.347Z,6.73
2018-12-15T08:28:51.376Z,6.27
2018-12-15T08:29:54.833Z,6.17
2018-12-15T08:30:58.877Z,5.90
2018-12-15T08:32:02.560Z,6.40
2018-12-15T08:33:05.921Z,6.40
2018-12-15T08:34:09.180Z,6.33
2018-12-15T08:35:12.585Z,6.28
2018-12-15T08:36:15.919Z,5.95
2018-12-15T08:37:19.148Z,6.10
2018-12-15T08:38:22.390Z,5.62
2018-12-15T08:39:25.661Z,5.75
2018-12-15T08:40:29.064Z,6.45
2018-12-15T08:41:32.289Z,5.85
2018-12-15T08:42:35.530Z,5.55
2018-12-15T08:43:38.760Z,5.83
2018-12-15T08:44:42.003Z,5.70
2018-12-15T08:45:45.265Z,5.55
2018-12-15T08:46:48.506Z,5.73
2018-12-15T08:47:51.837Z,6.57
2018-12-15T08:48:55.174Z,6.60
2018-12-15T08:49:58.422Z,6.73
2018-12-15T08:51:01.877Z,6.33
2018-12-15T08:52:05.137Z,6.43
2018-12-15T08:53:08.388Z,6.23
2018-12-15T08:54:11.690Z,6.67
2018-12-15T08:55:14.927Z,7.07
2018-12-15T08:56:18.200Z,7.15
2018-12-15T08:57:24.965Z,6.83
2018-12-15T08:58:28.687Z,7.47
2018-12-15T08:59:31.914Z,7.27
2018-12-15T09:00:35.211Z,7.27
2018-12-15T09:01:38.458Z,7.10
2018-12-15T09:02:41.778Z,7.83
2018-12-15T09:03:45.042Z,7.10
2018-12-15T09:04:48.844Z,6.83
2018-12-15T09:05:52.082Z,7.33
2018-12-15T09:06:55.478Z,7.53
2018-12-15T09:07:58.703Z,7.50
2018-12-15T09:09:01.951Z,7.25
2018-12-15T09:10:05.272Z,7.35
2018-12-15T09:11:08.530Z,7.58
2018-12-15T09:12:11.857Z,7.58
2018-12-15T09:13:15.179Z,7.90
2018-12-15T09:14:18.411Z,7.35
2018-12-15T09:15:21.736Z,7.58
2018-12-15T09:16:26.616Z,7.57
2018-12-15T09:17:30.237Z,7.97
2018-12-15T09:18:33.488Z,8.20
2018-12-15T09:19:36.856Z,7.53
2018-12-15T09:20:40.106Z,8.00
2018-12-15T09:21:43.356Z,7.53
2018-12-15T09:22:46.639Z,7.83
2018-12-15T09:23:50.726Z,7.72
2018-12-15T09:24:55.610Z,7.93
2018-12-15T09:25:59.029Z,7.70
2018-12-15T09:27:02.331Z,8.17
2018-12-15T09:28:05.736Z,7.67
2018-12-15T09:29:09.018Z,7.67
2018-12-15T09:30:12.303Z,8.30
2018-12-15T09:31:15.547Z,8.33
2018-12-15T09:32:18.786Z,7.33
2018-12-15T09:33:22.055Z,7.33
2018-12-15T09:34:25.309Z,7.78
2018-12-15T09:35:28.641Z,7.63
2018-12-15T09:36:32.766Z,7.57
2018-12-15T09:37:36.066Z,8.33
2018-12-15T09:38:39.333Z,7.62
2018-12-15T09:39:42.597Z,8.10
2018-12-15T09:40:46.082Z,7.78
2018-12-15T09:41:49.331Z,7.83
2018-12-15T09:42:52.558Z,7.87
2018-12-15T09:43:55.801Z,7.45
2018-12-15T09:44:59.102Z,7.12
2018-12-15T09:46:02.416Z,7.00
2018-12-15T09:47:05.804Z,7.95
2018-12-15T09:48:09.080Z,7.15
2018-12-15T09:49:17.679Z,6.87
2018-12-15T09:50:17.648Z,6.95
2018-12-15T09:51:20.882Z,7.37
2018-12-15T09:52:24.117Z,7.60
2018-12-15T09:53:27.380Z,6.80
2018-12-15T09:54:30.629Z,7.13
2018-12-15T09:55:33.877Z,7.50
2018-12-15T09:56:37.157Z,7.00
2018-12-15T09:57:40.388Z,7.20
2018-12-15T09:58:43.654Z,6.83
2018-12-15T09:59:47.014Z,5.97
2018-12-15T10:00:50.297Z,7.43
2018-12-15T10:01:53.514Z,6.10
2018-12-15T10:02:56.821Z,6.77
2018-12-15T10:04:00.072Z,6.83
2018-12-15T10:05:04.387Z,6.57
2018-12-15T10:06:07.852Z,6.87
2018-12-15T10:07:11.498Z,6.42
2018-12-15T10:08:14.873Z,6.30
2018-12-15T10:09:18.219Z,6.90
2018-12-15T10:10:21.453Z,6.65
2018-12-15T10:11:24.676Z,6.80
2018-12-15T10:12:28.226Z,6.83
2018-12-15T10:13:31.520Z,7.10
2018-12-15T10:14:34.733Z,6.80
2018-12-15T10:15:38.129Z,6.58
2018-12-15T10:16:41.375Z,6.37
2018-12-15T10:17:45.603Z,6.00
2018-12-15T10:18:49.046Z,6.53
2018-12-15T10:19:52.602Z,6.03
2018-12-15T10:20:56.088Z,6.57
2018-12-15T10:21:59.388Z,6.50
2018-12-15T10:23:02.703Z,6.67
2018-12-15T10:24:06.064Z,6.47
2018-12-15T10:25:09.402Z,6.97
2018-12-15T10:26:12.649Z,6.33
2018-12-15T10:27:15.900Z,6.70
2018-12-15T10:28:19.135Z,7.00
2018-12-15T10:29:27.950Z,6.20
2018-12-15T10:30:37.018Z,6.80
2018-12-15T10:31:45.987Z,6.62
2018-12-15T10:32:51.283Z,6.47
2018-12-15T10:33:54.602Z,6.20
2018-12-15T10:34:58.038Z,6.92
2018-12-15T10:36:01.573Z,6.67
2018-12-15T10:37:04.840Z,6.53
2018-12-15T10:38:08.198Z,6.10
2018-12-15T10:39:11.482Z,6.20
2018-12-15T10:40:15.167Z,6.05
2018-12-15T10:41:18.415Z,6.55
2018-12-15T10:42:21.826Z,6.20
2018-12-15T10:43:25.036Z,5.90
2018-12-15T10:44:28.953Z,6.90
2018-12-15T10:45:32.333Z,6.13
2018-12-15T10:46:35.618Z,6.37
2018-12-15T10:47:38.859Z,6.47
2018-12-15T10:48:42.124Z,6.77
2018-12-15T10:49:45.470Z,6.13
2018-12-15T10:50:48.809Z,6.50
2018-12-15T10:51:52.339Z,6.40
2018-12-15T10:52:55.695Z,6.30
2018-12-15T10:53:59.080Z,6.77
2018-12-15T10:55:02.548Z,6.30
2018-12-15T10:56:05.877Z,6.67
2018-12-15T10:57:09.129Z,6.23
2018-12-15T10:58:13.577Z,5.80
2018-12-15T10:59:16.819Z,6.37
2018-12-15T11:00:26.353Z,5.95
2018-12-15T11:01:30.776Z,5.87
2018-12-15T11:02:35.125Z,6.12
2018-12-15T11:03:38.540Z,6.05
2018-12-15T11:04:41.949Z,6.47
2018-12-15T11:05:45.240Z,5.80
2018-12-15T11:06:48.515Z,6.15
2018-12-15T11:07:51.911Z,6.95
2018-12-15T11:08:55.153Z,6.42
2018-12-15T11:09:58.480Z,6.47
2018-12-15T11:11:01.784Z,6.70
2018-12-15T11:12:05.053Z,6.22
2018-12-15T11:13:08.359Z,6.33
2018-12-15T11:14:11.701Z,6.33
2018-12-15T11:15:14.926Z,6.40
2018-12-15T11:16:18.171Z,6.77
2018-12-15T11:17:21.410Z,6.47
2018-12-15T11:18:24.804Z,6.87
2018-12-15T11:19:28.432Z,6.83
2018-12-15T11:20:31.682Z,6.97
2018-12-15T11:21:34.936Z,7.23
2018-12-15T11:22:38.454Z,6.57
2018-12-15T11:23:41.670Z,7.53
2018-12-15T11:24:45.121Z,6.90
2018-12-15T11:25:48.331Z,7.10
2018-12-15T11:26:51.561Z,7.42
2018-12-15T11:27:54.821Z,6.93
2018-12-15T11:28:58.082Z,6.37
2018-12-15T11:30:01.403Z,7.13
2018-12-15T11:31:04.986Z,7.00
2018-12-15T11:32:08.244Z,7.03
2018-12-15T11:33:11.844Z,6.62
2018-12-15T11:34:15.155Z,6.28
2018-12-15T11:35:18.420Z,7.30
2018-12-15T11:36:21.655Z,6.67
2018-12-15T11:37:24.902Z,6.60
2018-12-15T11:38:28.144Z,6.12
2018-12-15T11:39:31.364Z,5.70
2018-12-15T11:40:34.621Z,6.45
2018-12-15T11:41:37.958Z,7.08
2018-12-15T11:42:41.205Z,5.97
2018-12-15T11:43:44.481Z,6.53
2018-12-15T11:44:47.870Z,6.20
2018-12-15T11:45:51.190Z,6.10
2018-12-15T11:46:54.447Z,6.77
2018-12-15T11:47:57.736Z,6.20
2018-12-15T11:49:01.245Z,6.63
2018-12-15T11:50:04.849Z,5.97
2018-12-15T11:51:08.092Z,6.23
2018-12-15T11:52:11.562Z,5.97
2018-12-15T11:53:14.824Z,6.07
2018-12-15T11:54:18.049Z,6.60
2018-12-15T11:55:22.146Z,6.37
2018-12-15T11:56:25.413Z,6.53
2018-12-15T11:57:28.741Z,6.37
2018-12-15T11:58:32.045Z,6.17
2018-12-15T11:59:35.312Z,6.55
2018-12-15T12:00:39.795Z,6.77
2018-12-15T12:01:43.235Z,6.23
2018-12-15T12:02:46.495Z,6.03
2018-12-15T12:03:49.793Z,6.53
2018-12-15T12:04:53.056Z,6.22
2018-12-15T12:05:56.293Z,6.13
2018-12-15T12:06:59.547Z,6.33
2018-12-15T12:08:02.884Z,5.72
2018-12-15T12:09:06.881Z,6.15
2018-12-15T12:10:10.300Z,6.62
2018-12-15T12:11:13.587Z,6.37
2018-12-15T12:12:18.388Z,6.25
2018-12-15T12:13:22.384Z,6.10
2018-12-15T12:14:25.693Z,6.20
2018-12-15T12:15:28.930Z,5.50
2018-12-15T12:16:32.262Z,5.97
2018-12-15T12:17:36.488Z,5.95
2018-12-15T12:18:39.897Z,5.83
2018-12-15T12:19:50.023Z,6.00
2018-12-15T12:20:49.073Z,6.03
2018-12-15T12:21:52.310Z,6.03
2018-12-15T12:22:55.652Z,5.63
2018-12-15T12:23:58.894Z,5.67
2018-12-15T12:25:02.482Z,5.83
2018-12-15T12:26:05.807Z,5.85
2018-12-15T12:27:09.066Z,5.62
2018-12-15T12:28:12.341Z,5.73
2018-12-15T12:29:15.650Z,5.83
2018-12-15T12:30:19.033Z,5.57
2018-12-15T12:31:22.516Z,5.90
2018-12-15T12:32:25.879Z,5.25
2018-12-15T12:33:29.118Z,5.25
2018-12-15T12:34:32.383Z,5.33
2018-12-15T12:35:35.726Z,5.40
2018-12-15T12:36:39.120Z,5.43
2018-12-15T12:37:42.503Z,5.08
2018-12-15T12:38:46.106Z,5.97
2018-12-15T12:39:49.483Z,5.77
2018-12-15T12:40:52.852Z,5.70
2018-12-15T12:41:56.220Z,6.15
2018-12-15T12:42:59.676Z,6.37
2018-12-15T12:44:03.037Z,5.97
2018-12-15T12:45:06.797Z,6.00
2018-12-15T12:46:10.224Z,5.53
2018-12-15T12:47:13.510Z,5.78
2018-12-15T12:48:16.812Z,6.08
2018-12-15T12:49:20.055Z,6.17
2018-12-15T12:50:23.346Z,5.90
2018-12-15T12:51:26.709Z,5.47
2018-12-15T12:52:30.011Z,5.35
2018-12-15T12:53:33.275Z,5.07
2018-12-15T12:54:36.593Z,4.97
2018-12-15T12:55:40.335Z,4.90
2018-12-15T12:56:43.673Z,5.17
2018-12-15T12:57:46.940Z,4.90
2018-12-15T12:58:50.368Z,5.43
2018-12-15T12:59:53.703Z,5.10
2018-12-15T13:00:56.947Z,5.67
2018-12-15T13:02:00.315Z,4.97
2018-12-15T13:03:03.583Z,5.60
2018-12-15T13:04:06.908Z,5.47
2018-12-15T13:05:10.205Z,5.73
2018-12-15T13:06:13.395Z,5.43
2018-12-15T13:07:16.657Z,5.78
2018-12-15T13:08:19.917Z,5.50
2018-12-15T13:09:23.913Z,5.78
2018-12-15T13:10:27.157Z,4.90
2018-12-15T13:11:30.437Z,5.13
2018-12-15T13:12:33.762Z,5.12
2018-12-15T13:13:37.041Z,5.63
2018-12-15T13:14:40.390Z,5.10
2018-12-15T13:15:43.630Z,5.73
2018-12-15T13:16:46.878Z,5.40
2018-12-15T13:17:50.287Z,5.58
2018-12-15T13:18:53.554Z,5.85
2018-12-15T13:20:03.434Z,5.60
2018-12-15T13:21:02.241Z,5.47
2018-12-15T13:22:06.687Z,6.17
2018-12-15T13:23:09.966Z,5.47
2018-12-15T13:24:13.397Z,5.58
2018-12-15T13:25:16.693Z,5.60
2018-12-15T13:26:19.955Z,6.23
2018-12-15T13:27:23.349Z,5.70
2018-12-15T13:28:26.642Z,5.17
2018-12-15T13:29:29.922Z,5.90
2018-12-15T13:30:34.765Z,5.90
2018-12-15T13:31:38.179Z,5.90
2018-12-15T13:32:41.575Z,5.53
2018-12-15T13:33:46.429Z,5.65
2018-12-15T13:34:50.293Z,5.58
2018-12-15T13:35:54.299Z,5.80
2018-12-15T13:36:57.553Z,6.57
2018-12-15T13:38:00.974Z,5.97
2018-12-15T13:39:04.975Z,6.50
2018-12-15T13:40:08.290Z,5.67
2018-12-15T13:41:11.711Z,6.37
2018-12-15T13:42:15.304Z,5.92
2018-12-15T13:43:19.404Z,6.05
2018-12-15T13:44:22.648Z,6.10
2018-12-15T13:45:26.594Z,5.95
2018-12-15T13:46:29.884Z,6.30
2018-12-15T13:47:33.236Z,5.63
2018-12-15T13:48:36.627Z,5.67
2018-12-15T13:49:39.863Z,6.10
2018-12-15T13:50:43.144Z,5.83
2018-12-15T13:51:46.378Z,5.62
2018-12-15T13:52:49.680Z,6.25
2018-12-15T13:53:53.015Z,5.53
2018-12-15T13:54:56.270Z,5.75
2018-12-15T13:55:59.498Z,6.03
2018-12-15T13:57:06.939Z,5.70
2018-12-15T13:58:12.988Z,5.77
2018-12-15T13:59:18.234Z,6.07
2018-12-15T14:00:21.603Z,5.77
2018-12-15T14:01:27.049Z,5.70
2018-12-15T14:02:30.360Z,5.93
2018-12-15T14:03:33.737Z,6.13